sensor_id;sensor_type;location;lat;lon;timestamp;pressure;altitude;pressure_sealevel;temperature;humidity
1736;BME280;865;53.672;10.250;2024-02-23T00:02:10;97449.09;;;8.78;100.00
1736;BME280;865;53.672;10.250;2024-02-23T00:04:37;97439.19;;;8.70;100.00
1736;BME280;865;53.672;10.250;2024-02-23T00:07:03;97475.84;;;8.65;100.00
1736;BME280;865;53.672;10.250;2024-02-23T00:09:30;97469.75;;;8.66;100.00
1736;BME280;865;53.672;10.250;2024-02-23T00:11:57;97448.00;;;8.67;100.00
1736;BME280;865;53.672;10.250;2024-02-23T00:14:23;97450.63;;;8.67;100.00
1736;BME280;865;53.672;10.250;2024-02-23T00:16:51;97472.22;;;8.68;100.00
1736;BME280;865;53.672;10.250;2024-02-23T00:19:17;97466.81;;;8.58;100.00
1736;BME280;865;53.672;10.250;2024-02-23T00:21:46;97466.38;;;8.52;100.00
1736;BME280;865;53.672;10.250;2024-02-23T00:24:16;97496.72;;;8.51;100.00
1736;BME280;865;53.672;10.250;2024-02-23T00:26:43;97488.91;;;8.51;100.00
1736;BME280;865;53.672;10.250;2024-02-23T00:29:10;97496.25;;;8.44;100.00
1736;BME280;865;53.672;10.250;2024-02-23T00:31:39;97503.84;;;8.48;100.00
1736;BME280;865;53.672;10.250;2024-02-23T00:34:09;97507.69;;;8.42;100.00
1736;BME280;865;53.672;10.250;2024-02-23T00:36:40;97494.69;;;8.42;100.00
1736;BME280;865;53.672;10.250;2024-02-23T00:39:07;97505.09;;;8.42;100.00
1736;BME280;865;53.672;10.250;2024-02-23T00:41:35;97499.16;;;8.26;100.00
1736;BME280;865;53.672;10.250;2024-02-23T00:44:02;97503.00;;;8.33;100.00
1736;BME280;865;53.672;10.250;2024-02-23T00:46:30;97483.94;;;8.34;100.00
1736;BME280;865;53.672;10.250;2024-02-23T00:48:56;97493.00;;;8.27;100.00
1736;BME280;865;53.672;10.250;2024-02-23T00:51:23;97497.56;;;8.23;100.00
1736;BME280;865;53.672;10.250;2024-02-23T00:53:50;97506.38;;;8.20;100.00
1736;BME280;865;53.672;10.250;2024-02-23T00:56:16;97522.06;;;8.19;100.00
1736;BME280;865;53.672;10.250;2024-02-23T00:58:43;97532.53;;;8.17;100.00
1736;BME280;865;53.672;10.250;2024-02-23T01:01:09;97565.56;;;8.15;100.00
1736;BME280;865;53.672;10.250;2024-02-23T01:03:36;97601.16;;;7.99;100.00
1736;BME280;865;53.672;10.250;2024-02-23T01:06:02;97631.28;;;7.27;100.00
1736;BME280;865;53.672;10.250;2024-02-23T01:08:29;97650.63;;;6.90;100.00
1736;BME280;865;53.672;10.250;2024-02-23T01:10:56;97641.66;;;6.48;100.00
1736;BME280;865;53.672;10.250;2024-02-23T01:13:22;97645.00;;;6.34;100.00
1736;BME280;865;53.672;10.250;2024-02-23T01:15:49;97668.94;;;6.22;100.00
1736;BME280;865;53.672;10.250;2024-02-23T01:18:16;97664.75;;;6.19;100.00
1736;BME280;865;53.672;10.250;2024-02-23T01:20:42;97671.81;;;6.15;100.00
1736;BME280;865;53.672;10.250;2024-02-23T01:23:09;97684.59;;;6.19;100.00
1736;BME280;865;53.672;10.250;2024-02-23T01:25:35;97699.38;;;6.16;100.00
1736;BME280;865;53.672;10.250;2024-02-23T01:28:03;97698.31;;;6.21;100.00
1736;BME280;865;53.672;10.250;2024-02-23T01:30:29;97692.28;;;6.20;100.00
1736;BME280;865;53.672;10.250;2024-02-23T01:32:56;97706.38;;;6.14;100.00
1736;BME280;865;53.672;10.250;2024-02-23T01:35:23;97705.56;;;6.14;100.00
1736;BME280;865;53.672;10.250;2024-02-23T01:37:49;97714.31;;;6.11;100.00
1736;BME280;865;53.672;10.250;2024-02-23T01:40:16;97724.59;;;6.13;100.00
1736;BME280;865;53.672;10.250;2024-02-23T01:42:42;97733.56;;;6.06;100.00
1736;BME280;865;53.672;10.250;2024-02-23T01:45:09;97729.53;;;6.00;100.00
1736;BME280;865;53.672;10.250;2024-02-23T01:47:35;97748.41;;;6.02;100.00
1736;BME280;865;53.672;10.250;2024-02-23T01:50:03;97754.09;;;6.09;100.00
1736;BME280;865;53.672;10.250;2024-02-23T01:52:30;97760.19;;;6.08;100.00
1736;BME280;865;53.672;10.250;2024-02-23T01:54:56;97773.97;;;6.08;100.00
1736;BME280;865;53.672;10.250;2024-02-23T01:57:24;97778.47;;;6.05;100.00
1736;BME280;865;53.672;10.250;2024-02-23T02:00:15;97793.00;;;6.07;100.00
1736;BME280;865;53.672;10.250;2024-02-23T02:02:43;97802.66;;;6.04;100.00
1736;BME280;865;53.672;10.250;2024-02-23T02:05:10;97812.31;;;6.00;100.00
1736;BME280;865;53.672;10.250;2024-02-23T02:07:37;97831.19;;;6.02;100.00
1736;BME280;865;53.672;10.250;2024-02-23T02:10:06;97837.06;;;6.06;100.00
1736;BME280;865;53.672;10.250;2024-02-23T02:12:34;97837.69;;;6.11;100.00
1736;BME280;865;53.672;10.250;2024-02-23T02:15:01;97849.22;;;6.04;100.00
1736;BME280;865;53.672;10.250;2024-02-23T02:17:28;97861.72;;;5.96;100.00
1736;BME280;865;53.672;10.250;2024-02-23T02:19:58;97877.50;;;5.89;100.00
1736;BME280;865;53.672;10.250;2024-02-23T02:22:25;97889.66;;;5.87;100.00
1736;BME280;865;53.672;10.250;2024-02-23T02:24:52;97891.75;;;5.79;100.00
1736;BME280;865;53.672;10.250;2024-02-23T02:27:18;97914.28;;;5.77;100.00
1736;BME280;865;53.672;10.250;2024-02-23T02:29:44;97925.88;;;5.68;100.00
1736;BME280;865;53.672;10.250;2024-02-23T02:32:11;97920.84;;;5.65;100.00
1736;BME280;865;53.672;10.250;2024-02-23T02:34:37;97922.56;;;5.65;100.00
1736;BME280;865;53.672;10.250;2024-02-23T02:37:04;97926.22;;;5.61;100.00
1736;BME280;865;53.672;10.250;2024-02-23T02:39:31;97936.97;;;5.52;100.00
1736;BME280;865;53.672;10.250;2024-02-23T02:41:57;97949.25;;;5.46;100.00
1736;BME280;865;53.672;10.250;2024-02-23T02:44:23;97948.75;;;5.38;100.00
1736;BME280;865;53.672;10.250;2024-02-23T02:46:50;97965.38;;;5.33;100.00
1736;BME280;865;53.672;10.250;2024-02-23T02:49:16;97973.28;;;5.30;100.00
1736;BME280;865;53.672;10.250;2024-02-23T02:51:43;97975.38;;;5.20;100.00
1736;BME280;865;53.672;10.250;2024-02-23T02:54:11;97998.59;;;5.21;100.00
1736;BME280;865;53.672;10.250;2024-02-23T02:56:42;98012.31;;;5.23;100.00
1736;BME280;865;53.672;10.250;2024-02-23T02:59:09;97999.44;;;5.22;100.00
1736;BME280;865;53.672;10.250;2024-02-23T03:01:36;98021.44;;;5.10;100.00
1736;BME280;865;53.672;10.250;2024-02-23T03:04:03;98024.00;;;5.12;100.00
1736;BME280;865;53.672;10.250;2024-02-23T03:06:29;97999.53;;;4.98;100.00
1736;BME280;865;53.672;10.250;2024-02-23T03:08:56;98023.75;;;4.96;100.00
1736;BME280;865;53.672;10.250;2024-02-23T03:11:22;98040.88;;;4.98;100.00
1736;BME280;865;53.672;10.250;2024-02-23T03:13:49;98040.44;;;5.09;100.00
1736;BME280;865;53.672;10.250;2024-02-23T03:16:20;98051.63;;;5.10;100.00
1736;BME280;865;53.672;10.250;2024-02-23T03:18:47;98056.66;;;5.13;100.00
1736;BME280;865;53.672;10.250;2024-02-23T03:21:15;98056.38;;;4.98;100.00
1736;BME280;865;53.672;10.250;2024-02-23T03:23:41;98066.41;;;5.06;100.00
1736;BME280;865;53.672;10.250;2024-02-23T03:26:08;98069.97;;;5.03;100.00
1736;BME280;865;53.672;10.250;2024-02-23T03:28:34;98073.38;;;5.04;100.00
1736;BME280;865;53.672;10.250;2024-02-23T03:31:02;98081.78;;;5.09;100.00
1736;BME280;865;53.672;10.250;2024-02-23T03:33:28;98078.28;;;5.10;100.00
1736;BME280;865;53.672;10.250;2024-02-23T03:35:55;98087.25;;;5.01;100.00
1736;BME280;865;53.672;10.250;2024-02-23T03:38:21;98099.09;;;5.07;100.00
1736;BME280;865;53.672;10.250;2024-02-23T03:40:48;98095.00;;;5.01;100.00
1736;BME280;865;53.672;10.250;2024-02-23T03:43:15;98106.25;;;5.00;100.00
1736;BME280;865;53.672;10.250;2024-02-23T03:45:41;98124.34;;;5.00;100.00
1736;BME280;865;53.672;10.250;2024-02-23T03:48:08;98121.53;;;5.05;100.00
1736;BME280;865;53.672;10.250;2024-02-23T03:50:34;98138.00;;;5.02;100.00
1736;BME280;865;53.672;10.250;2024-02-23T03:53:01;98131.28;;;4.98;100.00
1736;BME280;865;53.672;10.250;2024-02-23T03:55:27;98126.19;;;4.97;100.00
1736;BME280;865;53.672;10.250;2024-02-23T03:57:53;98133.88;;;4.98;100.00
1736;BME280;865;53.672;10.250;2024-02-23T04:00:20;98148.66;;;4.95;100.00
1736;BME280;865;53.672;10.250;2024-02-23T04:02:49;98147.50;;;4.80;100.00
1736;BME280;865;53.672;10.250;2024-02-23T04:05:15;98161.44;;;4.76;100.00
1736;BME280;865;53.672;10.250;2024-02-23T04:07:42;98171.13;;;4.69;100.00
1736;BME280;865;53.672;10.250;2024-02-23T04:10:09;98177.25;;;4.67;100.00
1736;BME280;865;53.672;10.250;2024-02-23T04:12:35;98178.97;;;4.68;100.00
1736;BME280;865;53.672;10.250;2024-02-23T04:15:02;98193.31;;;4.75;100.00
1736;BME280;865;53.672;10.250;2024-02-23T04:17:28;98189.28;;;4.68;100.00
1736;BME280;865;53.672;10.250;2024-02-23T04:19:55;98191.06;;;4.66;100.00
1736;BME280;865;53.672;10.250;2024-02-23T04:22:21;98207.69;;;4.59;100.00
1736;BME280;865;53.672;10.250;2024-02-23T04:24:48;98210.81;;;4.67;100.00
1736;BME280;865;53.672;10.250;2024-02-23T04:27:14;98208.66;;;4.56;100.00
1736;BME280;865;53.672;10.250;2024-02-23T04:29:41;98233.63;;;4.55;100.00
1736;BME280;865;53.672;10.250;2024-02-23T04:32:07;98229.13;;;4.61;100.00
1736;BME280;865;53.672;10.250;2024-02-23T04:34:34;98221.16;;;4.67;100.00
1736;BME280;865;53.672;10.250;2024-02-23T04:37:01;98236.34;;;4.76;100.00
1736;BME280;865;53.672;10.250;2024-02-23T04:39:27;98240.94;;;4.68;100.00
1736;BME280;865;53.672;10.250;2024-02-23T04:41:54;98241.66;;;4.71;100.00
1736;BME280;865;53.672;10.250;2024-02-23T04:44:21;98251.81;;;4.76;100.00
1736;BME280;865;53.672;10.250;2024-02-23T04:46:47;98244.16;;;4.73;100.00
1736;BME280;865;53.672;10.250;2024-02-23T04:49:14;98261.25;;;4.77;100.00
1736;BME280;865;53.672;10.250;2024-02-23T04:51:41;98249.03;;;4.82;100.00
1736;BME280;865;53.672;10.250;2024-02-23T04:54:07;98244.91;;;4.76;100.00
1736;BME280;865;53.672;10.250;2024-02-23T04:56:34;98243.09;;;4.78;100.00
1736;BME280;865;53.672;10.250;2024-02-23T04:59:01;98233.00;;;4.72;100.00
1736;BME280;865;53.672;10.250;2024-02-23T05:01:27;98242.44;;;4.73;100.00
1736;BME280;865;53.672;10.250;2024-02-23T05:03:54;98260.56;;;4.72;100.00
1736;BME280;865;53.672;10.250;2024-02-23T05:06:20;98260.56;;;4.72;100.00
1736;BME280;865;53.672;10.250;2024-02-23T05:08:47;98265.69;;;4.73;100.00
1736;BME280;865;53.672;10.250;2024-02-23T05:11:16;98272.63;;;4.71;100.00
1736;BME280;865;53.672;10.250;2024-02-23T05:13:43;98283.91;;;4.69;100.00
1736;BME280;865;53.672;10.250;2024-02-23T05:16:09;98276.97;;;4.71;100.00
1736;BME280;865;53.672;10.250;2024-02-23T05:18:36;98283.19;;;4.65;100.00
1736;BME280;865;53.672;10.250;2024-02-23T05:21:03;98301.31;;;4.64;100.00
1736;BME280;865;53.672;10.250;2024-02-23T05:23:29;98299.53;;;4.66;100.00
1736;BME280;865;53.672;10.250;2024-02-23T05:25:56;98319.25;;;4.67;100.00
1736;BME280;865;53.672;10.250;2024-02-23T05:28:22;98322.88;;;4.63;100.00
1736;BME280;865;53.672;10.250;2024-02-23T05:30:49;98308.28;;;4.62;100.00
1736;BME280;865;53.672;10.250;2024-02-23T05:33:15;98309.94;;;4.63;100.00
1736;BME280;865;53.672;10.250;2024-02-23T05:35:42;98335.03;;;4.59;100.00
1736;BME280;865;53.672;10.250;2024-02-23T05:38:08;98339.47;;;4.55;100.00
1736;BME280;865;53.672;10.250;2024-02-23T05:40:35;98339.47;;;4.55;100.00
1736;BME280;865;53.672;10.250;2024-02-23T05:43:02;98342.16;;;4.52;100.00
1736;BME280;865;53.672;10.250;2024-02-23T05:45:28;98350.78;;;4.51;100.00
1736;BME280;865;53.672;10.250;2024-02-23T05:47:55;98348.16;;;4.53;100.00
1736;BME280;865;53.672;10.250;2024-02-23T05:50:22;98357.53;;;4.55;100.00
1736;BME280;865;53.672;10.250;2024-02-23T05:52:48;98355.81;;;4.56;100.00
1736;BME280;865;53.672;10.250;2024-02-23T05:55:15;98362.50;;;4.62;100.00
1736;BME280;865;53.672;10.250;2024-02-23T05:57:42;98370.38;;;4.57;100.00
1736;BME280;865;53.672;10.250;2024-02-23T06:00:09;98353.94;;;4.60;100.00
1736;BME280;865;53.672;10.250;2024-02-23T06:02:38;98366.13;;;4.56;100.00
1736;BME280;865;53.672;10.250;2024-02-23T06:05:05;98381.50;;;4.59;100.00
1736;BME280;865;53.672;10.250;2024-02-23T06:07:34;98382.50;;;4.55;100.00
1736;BME280;865;53.672;10.250;2024-02-23T06:10:01;98397.84;;;4.60;100.00
1736;BME280;865;53.672;10.250;2024-02-23T06:12:27;98396.91;;;4.62;100.00
1736;BME280;865;53.672;10.250;2024-02-23T06:14:54;98409.63;;;4.67;100.00
1736;BME280;865;53.672;10.250;2024-02-23T06:17:23;98409.63;;;4.67;100.00
1736;BME280;865;53.672;10.250;2024-02-23T06:19:50;98412.53;;;4.57;100.00
1736;BME280;865;53.672;10.250;2024-02-23T06:22:18;98416.84;;;4.57;100.00
1736;BME280;865;53.672;10.250;2024-02-23T06:24:47;98440.06;;;4.59;100.00
1736;BME280;865;53.672;10.250;2024-02-23T06:27:14;98440.94;;;4.57;100.00
1736;BME280;865;53.672;10.250;2024-02-23T06:29:40;98446.00;;;4.61;100.00
1736;BME280;865;53.672;10.250;2024-02-23T06:32:07;98457.22;;;4.60;100.00
1736;BME280;865;53.672;10.250;2024-02-23T06:34:34;98449.47;;;4.60;100.00
1736;BME280;865;53.672;10.250;2024-02-23T06:37:00;98456.41;;;4.57;100.00
1736;BME280;865;53.672;10.250;2024-02-23T06:39:27;98457.22;;;4.60;100.00
1736;BME280;865;53.672;10.250;2024-02-23T06:41:53;98450.28;;;4.62;100.00
1736;BME280;865;53.672;10.250;2024-02-23T06:44:20;98477.75;;;4.64;100.00
1736;BME280;865;53.672;10.250;2024-02-23T06:46:46;98489.66;;;4.68;100.00
1736;BME280;865;53.672;10.250;2024-02-23T06:49:13;98504.41;;;4.65;100.00
1736;BME280;865;53.672;10.250;2024-02-23T06:51:39;98498.25;;;4.69;100.00
1736;BME280;865;53.672;10.250;2024-02-23T06:54:07;98508.56;;;4.69;100.00
1736;BME280;865;53.672;10.250;2024-02-23T06:56:34;98517.13;;;4.71;100.00
1736;BME280;865;53.672;10.250;2024-02-23T06:59:00;98518.78;;;4.72;100.00
1736;BME280;865;53.672;10.250;2024-02-23T07:01:27;98509.50;;;4.66;100.00
1736;BME280;865;53.672;10.250;2024-02-23T07:03:54;98516.22;;;4.72;100.00
1736;BME280;865;53.672;10.250;2024-02-23T07:06:20;98527.38;;;4.72;100.00
1736;BME280;865;53.672;10.250;2024-02-23T07:08:47;98519.63;;;4.72;100.00
1736;BME280;865;53.672;10.250;2024-02-23T07:11:13;98531.72;;;4.72;100.00
1736;BME280;865;53.672;10.250;2024-02-23T07:13:43;98538.47;;;4.76;100.00
1736;BME280;865;53.672;10.250;2024-02-23T07:16:09;98529.13;;;4.72;100.00
1736;BME280;865;53.672;10.250;2024-02-23T07:18:36;98547.00;;;4.78;100.00
1736;BME280;865;53.672;10.250;2024-02-23T07:21:02;98546.88;;;4.83;100.00
1736;BME280;865;53.672;10.250;2024-02-23T07:23:29;98552.13;;;4.79;100.00
1736;BME280;865;53.672;10.250;2024-02-23T07:25:56;98556.41;;;4.80;100.00
1736;BME280;865;53.672;10.250;2024-02-23T07:28:22;98555.38;;;4.86;100.00
1736;BME280;865;53.672;10.250;2024-02-23T07:30:49;98553.88;;;4.79;100.00
1736;BME280;865;53.672;10.250;2024-02-23T07:33:16;98568.31;;;4.85;100.00
1736;BME280;865;53.672;10.250;2024-02-23T07:35:42;98557.34;;;4.78;100.00
1736;BME280;865;53.672;10.250;2024-02-23T07:38:09;98571.16;;;4.77;100.00
1736;BME280;865;53.672;10.250;2024-02-23T07:40:36;98563.81;;;4.63;100.00
1736;BME280;865;53.672;10.250;2024-02-23T07:43:05;98577.66;;;4.61;100.00
1736;BME280;865;53.672;10.250;2024-02-23T07:45:32;98576.00;;;4.60;100.00
1736;BME280;865;53.672;10.250;2024-02-23T07:48:00;98580.03;;;4.68;100.00
1736;BME280;865;53.672;10.250;2024-02-23T07:50:26;98591.75;;;4.78;100.00
1736;BME280;865;53.672;10.250;2024-02-23T07:52:53;98584.78;;;4.82;100.00
1736;BME280;865;53.672;10.250;2024-02-23T07:55:20;98589.97;;;4.80;100.00
1736;BME280;865;53.672;10.250;2024-02-23T07:57:46;98582.56;;;4.70;100.00
1736;BME280;865;53.672;10.250;2024-02-23T08:00:13;98592.00;;;4.71;100.00
1736;BME280;865;53.672;10.250;2024-02-23T08:02:40;98595.97;;;4.81;100.00
1736;BME280;865;53.672;10.250;2024-02-23T08:05:07;98598.47;;;4.84;100.00
1736;BME280;865;53.672;10.250;2024-02-23T08:07:34;98611.16;;;4.92;100.00
1736;BME280;865;53.672;10.250;2024-02-23T08:10:01;98610.06;;;4.99;100.00
1736;BME280;865;53.672;10.250;2024-02-23T08:12:29;98616.84;;;5.03;100.00
1736;BME280;865;53.672;10.250;2024-02-23T08:14:55;98613.03;;;5.15;100.00
1736;BME280;865;53.672;10.250;2024-02-23T08:17:22;98624.84;;;5.22;100.00
1736;BME280;865;53.672;10.250;2024-02-23T08:19:51;98615.97;;;5.29;100.00
1736;BME280;865;53.672;10.250;2024-02-23T08:22:18;98623.84;;;5.26;100.00
1736;BME280;865;53.672;10.250;2024-02-23T08:24:44;98626.94;;;5.37;100.00
1736;BME280;865;53.672;10.250;2024-02-23T08:27:11;98627.63;;;5.42;100.00
1736;BME280;865;53.672;10.250;2024-02-23T08:29:38;98636.19;;;5.44;100.00
1736;BME280;865;53.672;10.250;2024-02-23T08:32:05;98639.94;;;5.61;100.00
1736;BME280;865;53.672;10.250;2024-02-23T08:34:32;98632.66;;;5.72;100.00
1736;BME280;865;53.672;10.250;2024-02-23T08:37:00;98645.59;;;5.72;100.00
1736;BME280;865;53.672;10.250;2024-02-23T08:39:27;98645.06;;;5.62;100.00
1736;BME280;865;53.672;10.250;2024-02-23T08:41:55;98645.44;;;5.77;100.00
1736;BME280;865;53.672;10.250;2024-02-23T08:44:21;98639.41;;;5.76;100.00
1736;BME280;865;53.672;10.250;2024-02-23T08:46:48;98662.81;;;5.73;100.00
1736;BME280;865;53.672;10.250;2024-02-23T08:49:14;98643.59;;;5.80;100.00
1736;BME280;865;53.672;10.250;2024-02-23T08:51:41;98654.59;;;5.87;100.00
1736;BME280;865;53.672;10.250;2024-02-23T08:54:07;98665.66;;;5.90;100.00
1736;BME280;865;53.672;10.250;2024-02-23T08:56:38;98658.63;;;5.96;100.00
1736;BME280;865;53.672;10.250;2024-02-23T08:59:09;98663.59;;;6.02;100.00
1736;BME280;865;53.672;10.250;2024-02-23T09:01:36;98672.06;;;6.07;100.00
1736;BME280;865;53.672;10.250;2024-02-23T09:04:02;98673.72;;;6.08;100.00
1736;BME280;865;53.672;10.250;2024-02-23T09:06:29;98686.56;;;5.84;100.00
1736;BME280;865;53.672;10.250;2024-02-23T09:08:55;98688.13;;;5.90;100.00
1736;BME280;865;53.672;10.250;2024-02-23T09:11:22;98696.03;;;5.85;100.00
1736;BME280;865;53.672;10.250;2024-02-23T09:13:49;98699.03;;;6.00;100.00
1736;BME280;865;53.672;10.250;2024-02-23T09:16:15;98705.59;;;6.10;100.00
1736;BME280;865;53.672;10.250;2024-02-23T09:18:42;98710.88;;;6.07;100.00
1736;BME280;865;53.672;10.250;2024-02-23T09:21:09;98707.38;;;6.08;100.00
1736;BME280;865;53.672;10.250;2024-02-23T09:23:35;98721.22;;;6.07;100.00
1736;BME280;865;53.672;10.250;2024-02-23T09:26:01;98710.91;;;6.05;100.00
1736;BME280;865;53.672;10.250;2024-02-23T09:28:34;98716.81;;;6.09;100.00
1736;BME280;865;53.672;10.250;2024-02-23T09:31:00;98732.53;;;6.04;100.00
1736;BME280;865;53.672;10.250;2024-02-23T09:33:27;98718.53;;;6.10;100.00
1736;BME280;865;53.672;10.250;2024-02-23T09:35:54;98719.38;;;6.10;100.00
1736;BME280;865;53.672;10.250;2024-02-23T09:38:21;98719.41;;;6.09;100.00
1736;BME280;865;53.672;10.250;2024-02-23T09:40:51;98734.72;;;6.15;100.00
1736;BME280;865;53.672;10.250;2024-02-23T09:43:21;98743.41;;;6.14;100.00
1736;BME280;865;53.672;10.250;2024-02-23T09:45:51;98737.09;;;6.21;100.00
1736;BME280;865;53.672;10.250;2024-02-23T09:48:19;98731.72;;;6.27;100.00
1736;BME280;865;53.672;10.250;2024-02-23T09:50:47;98740.47;;;6.25;100.00
1736;BME280;865;53.672;10.250;2024-02-23T09:53:14;98747.34;;;6.24;100.00
1736;BME280;865;53.672;10.250;2024-02-23T09:55:42;98746.50;;;6.24;100.00
1736;BME280;865;53.672;10.250;2024-02-23T09:58:12;98758.25;;;6.34;100.00
1736;BME280;865;53.672;10.250;2024-02-23T10:00:40;98778.22;;;6.30;100.00
1736;BME280;865;53.672;10.250;2024-02-23T10:03:07;98761.72;;;6.33;100.00
1736;BME280;865;53.672;10.250;2024-02-23T10:05:33;98764.97;;;6.39;100.00
1736;BME280;865;53.672;10.250;2024-02-23T10:08:05;98778.97;;;6.59;100.00
1736;BME280;865;53.672;10.250;2024-02-23T10:10:33;98775.56;;;6.82;100.00
1736;BME280;865;53.672;10.250;2024-02-23T10:13:00;98768.66;;;6.81;100.00
1736;BME280;865;53.672;10.250;2024-02-23T10:15:30;98779.66;;;6.64;100.00
1736;BME280;865;53.672;10.250;2024-02-23T10:17:59;98795.53;;;6.55;100.00
1736;BME280;865;53.672;10.250;2024-02-23T10:20:26;98797.69;;;6.67;100.00
1736;BME280;865;53.672;10.250;2024-02-23T10:22:53;98794.75;;;6.76;100.00
1736;BME280;865;53.672;10.250;2024-02-23T10:25:20;98798.81;;;6.83;100.00
1736;BME280;865;53.672;10.250;2024-02-23T10:27:46;98795.50;;;7.03;100.00
1736;BME280;865;53.672;10.250;2024-02-23T10:30:13;98802.16;;;6.87;100.00
1736;BME280;865;53.672;10.250;2024-02-23T10:32:42;98807.28;;;6.89;100.00
1736;BME280;865;53.672;10.250;2024-02-23T10:35:13;98813.03;;;6.97;100.00
1736;BME280;865;53.672;10.250;2024-02-23T10:37:42;98814.50;;;7.04;100.00
1736;BME280;865;53.672;10.250;2024-02-23T10:40:11;98807.41;;;7.09;100.00
1736;BME280;865;53.672;10.250;2024-02-23T10:42:39;98813.53;;;7.30;100.00
1736;BME280;865;53.672;10.250;2024-02-23T10:45:08;98816.47;;;7.44;100.00
1736;BME280;865;53.672;10.250;2024-02-23T10:47:36;98818.25;;;7.42;100.00
1736;BME280;865;53.672;10.250;2024-02-23T10:50:04;98828.63;;;7.42;100.00
1736;BME280;865;53.672;10.250;2024-02-23T10:52:31;98823.09;;;7.51;100.00
1736;BME280;865;53.672;10.250;2024-02-23T10:55:00;98823.69;;;7.58;100.00
1736;BME280;865;53.672;10.250;2024-02-23T10:57:30;98832.38;;;7.57;100.00
1736;BME280;865;53.672;10.250;2024-02-23T10:59:56;98833.72;;;7.67;100.00
1736;BME280;865;53.672;10.250;2024-02-23T11:02:23;98839.34;;;7.57;100.00
1736;BME280;865;53.672;10.250;2024-02-23T11:04:52;98832.88;;;7.67;100.00
1736;BME280;865;53.672;10.250;2024-02-23T11:07:22;98824.31;;;7.65;100.00
1736;BME280;865;53.672;10.250;2024-02-23T11:09:51;98831.06;;;7.69;100.00
1736;BME280;865;53.672;10.250;2024-02-23T11:12:25;98826.72;;;7.69;100.00
1736;BME280;865;53.672;10.250;2024-02-23T11:14:57;98833.84;;;7.64;100.00
1736;BME280;865;53.672;10.250;2024-02-23T11:17:27;98842.78;;;7.57;100.00
1736;BME280;865;53.672;10.250;2024-02-23T11:19:54;98838.63;;;7.53;100.00
1736;BME280;865;53.672;10.250;2024-02-23T11:22:25;98842.16;;;7.50;100.00
1736;BME280;865;53.672;10.250;2024-02-23T11:25:04;98850.28;;;7.41;100.00
1736;BME280;865;53.672;10.250;2024-02-23T11:27:41;98845.75;;;7.46;100.00
1736;BME280;865;53.672;10.250;2024-02-23T11:30:10;98828.75;;;7.39;100.00
1736;BME280;865;53.672;10.250;2024-02-23T11:32:38;98821.09;;;7.13;100.00
1736;BME280;865;53.672;10.250;2024-02-23T11:35:11;98835.13;;;7.30;100.00
1736;BME280;865;53.672;10.250;2024-02-23T11:37:54;98832.63;;;7.51;100.00
1736;BME280;865;53.672;10.250;2024-02-23T11:40:32;98829.63;;;7.62;100.00
1736;BME280;865;53.672;10.250;2024-02-23T11:42:59;98843.25;;;7.67;100.00
1736;BME280;865;53.672;10.250;2024-02-23T11:45:29;98837.66;;;7.56;100.00
1736;BME280;865;53.672;10.250;2024-02-23T11:47:57;98835.47;;;7.45;100.00
1736;BME280;865;53.672;10.250;2024-02-23T11:50:24;98845.38;;;7.34;100.00
1736;BME280;865;53.672;10.250;2024-02-23T11:52:51;98844.19;;;7.42;100.00
1736;BME280;865;53.672;10.250;2024-02-23T11:55:21;98838.03;;;7.45;100.00
1736;BME280;865;53.672;10.250;2024-02-23T11:57:50;98841.13;;;7.54;100.00
1736;BME280;865;53.672;10.250;2024-02-23T12:00:30;98844.31;;;7.61;100.00
1736;BME280;865;53.672;10.250;2024-02-23T12:02:57;98848.06;;;7.54;100.00
1736;BME280;865;53.672;10.250;2024-02-23T12:05:23;98834.53;;;7.46;100.00
1736;BME280;865;53.672;10.250;2024-02-23T12:07:50;98841.44;;;7.47;100.00
1736;BME280;865;53.672;10.250;2024-02-23T12:10:16;98842.09;;;7.52;100.00
1736;BME280;865;53.672;10.250;2024-02-23T12:12:43;98838.25;;;7.62;100.00
1736;BME280;865;53.672;10.250;2024-02-23T12:15:09;98835.41;;;7.68;100.00
1736;BME280;865;53.672;10.250;2024-02-23T12:17:36;98836.03;;;7.75;100.00
1736;BME280;865;53.672;10.250;2024-02-23T12:20:04;98835.31;;;7.71;100.00
1736;BME280;865;53.672;10.250;2024-02-23T12:22:34;98838.19;;;7.64;100.00
1736;BME280;865;53.672;10.250;2024-02-23T12:25:00;98835.59;;;7.64;100.00
1736;BME280;865;53.672;10.250;2024-02-23T12:27:29;98843.44;;;7.62;100.00
1736;BME280;865;53.672;10.250;2024-02-23T12:29:56;98842.59;;;7.62;100.00
1736;BME280;865;53.672;10.250;2024-02-23T12:32:22;98849.28;;;7.67;100.00
1736;BME280;865;53.672;10.250;2024-02-23T12:34:50;98844.31;;;7.61;100.00
1736;BME280;865;53.672;10.250;2024-02-23T12:37:17;98846.41;;;7.75;100.00
1736;BME280;865;53.672;10.250;2024-02-23T12:39:44;98850.75;;;7.74;100.00
1736;BME280;865;53.672;10.250;2024-02-23T12:42:10;98849.59;;;7.82;100.00
1736;BME280;865;53.672;10.250;2024-02-23T12:44:37;98857.38;;;7.82;100.00
1736;BME280;865;53.672;10.250;2024-02-23T12:47:04;98849.06;;;7.73;100.00
1736;BME280;865;53.672;10.250;2024-02-23T12:49:30;98861.25;;;7.71;100.00
1736;BME280;865;53.672;10.250;2024-02-23T12:51:57;98858.34;;;7.79;100.00
1736;BME280;865;53.672;10.250;2024-02-23T12:54:24;98854.47;;;7.67;100.00
1736;BME280;865;53.672;10.250;2024-02-23T12:56:50;98869.97;;;7.70;100.00
1736;BME280;865;53.672;10.250;2024-02-23T12:59:17;98860.81;;;7.82;100.00
1736;BME280;865;53.672;10.250;2024-02-23T13:01:44;98857.22;;;7.86;100.00
1736;BME280;865;53.672;10.250;2024-02-23T13:04:13;98864.16;;;7.86;100.00
1736;BME280;865;53.672;10.250;2024-02-23T13:06:40;98862.34;;;7.88;100.00
1736;BME280;865;53.672;10.250;2024-02-23T13:09:07;98871.97;;;7.86;100.00
1736;BME280;865;53.672;10.250;2024-02-23T13:11:39;98879.22;;;7.76;100.00
1736;BME280;865;53.672;10.250;2024-02-23T13:14:06;98885.56;;;7.69;100.00
1736;BME280;865;53.672;10.250;2024-02-23T13:16:32;98876.50;;;7.57;100.00
1736;BME280;865;53.672;10.250;2024-02-23T13:18:59;98878.06;;;7.61;100.00
1736;BME280;865;53.672;10.250;2024-02-23T13:21:26;98874.69;;;7.59;100.00
1736;BME280;865;53.672;10.250;2024-02-23T13:23:52;98887.56;;;7.62;100.00